Time;durP1;ratioP1;P1;durP2;ratioP2;P2;SDS_P1;SDS_P2;PMS_P1;PMS_P2;Temp;Humidity;BMP_temperature;BMP_pressure;BME280_temperature;BME280_humidity;BME280_pressure;Samples;Min_cycle;Max_cycle;Signal;HPM_P1;HPM_P2
2020/12/04 00:01:13;;;;;;;31.80;18.93;;;1.50;87.40;;;;;;4994894;28;20679;-82
2020/12/04 00:03:41;;;;;;;33.27;18.63;;;1.50;87.50;;;;;;5006515;28;20196;-80
2020/12/04 00:06:08;;;;;;;34.10;19.33;;;1.50;87.50;;;;;;5002471;28;20635;-81
2020/12/04 00:08:36;;;;;;;36.20;20.20;;;1.40;87.60;;;;;;5007656;28;20199;-79
2020/12/04 00:11:04;;;;;;;36.10;20.67;;;1.50;87.70;;;;;;5006971;28;20219;-82
2020/12/04 00:13:32;;;;;;;37.97;19.47;;;1.40;87.70;;;;;;5015369;28;20194;-82
2020/12/04 00:16:01;;;;;;;39.50;20.27;;;1.50;87.70;;;;;;5022835;28;20208;-81
2020/12/04 00:18:29;;;;;;;34.83;19.20;;;1.50;87.70;;;;;;5012093;28;20817;-80
2020/12/04 00:20:56;;;;;;;36.97;19.30;;;1.50;87.60;;;;;;5020390;28;20484;-81
2020/12/04 00:23:24;;;;;;;39.73;19.57;;;1.50;87.50;;;;;;4995349;28;20425;-80
2020/12/04 00:25:51;;;;;;;35.43;20.73;;;1.50;87.50;;;;;;5000867;28;20633;-81
2020/12/04 00:28:19;;;;;;;34.77;18.80;;;1.50;87.50;;;;;;5018648;28;20249;-81
2020/12/04 00:30:47;;;;;;;35.60;19.03;;;1.50;87.70;;;;;;5017934;28;20207;-81
2020/12/04 00:33:15;;;;;;;35.80;18.43;;;1.50;87.60;;;;;;5021383;28;20228;-79
2020/12/04 00:35:42;;;;;;;27.83;15.37;;;1.50;87.70;;;;;;5000039;28;20275;-81
2020/12/04 00:38:10;;;;;;;35.83;19.37;;;1.60;87.70;;;;;;4990034;28;20214;-80
2020/12/04 00:40:37;;;;;;;35.80;18.80;;;1.60;87.60;;;;;;5017756;28;20187;-80
2020/12/04 00:43:05;;;;;;;33.07;18.53;;;1.60;87.60;;;;;;5006380;28;20216;-80
2020/12/04 00:45:32;;;;;;;33.97;19.10;;;1.50;87.60;;;;;;5009906;28;20415;-79
2020/12/04 00:48:00;;;;;;;36.50;18.37;;;1.60;87.50;;;;;;4986027;28;20215;-79
2020/12/04 00:50:28;;;;;;;35.77;17.80;;;1.60;87.70;;;;;;4991560;28;20199;-79
2020/12/04 00:52:56;;;;;;;33.63;18.97;;;1.60;87.60;;;;;;4992662;28;20203;-79
2020/12/04 00:55:23;;;;;;;32.33;17.47;;;1.70;87.70;;;;;;4987981;28;20207;-79
2020/12/04 00:57:51;;;;;;;34.33;18.50;;;1.60;87.60;;;;;;4995128;28;20792;-79
2020/12/04 01:00:18;;;;;;;33.47;18.83;;;1.70;87.60;;;;;;4987557;28;20200;-79
2020/12/04 01:02:46;;;;;;;30.50;17.57;;;1.70;87.60;;;;;;4997584;28;20317;-78
2020/12/04 01:05:13;;;;;;;34.97;19.03;;;1.70;87.60;;;;;;4994209;28;20285;-79
2020/12/04 01:07:41;;;;;;;32.90;19.47;;;1.60;87.60;;;;;;4988967;28;21153;-79
2020/12/04 01:10:09;;;;;;;36.30;20.20;;;1.60;87.60;;;;;;4994520;28;20262;-80
2020/12/04 01:12:37;;;;;;;31.03;17.27;;;1.70;87.70;;;;;;4997437;28;20211;-82
2020/12/04 01:15:04;;;;;;;36.73;18.73;;;1.70;87.60;;;;;;4993802;28;20242;-78
2020/12/04 01:17:32;;;;;;;35.43;19.63;;;1.70;87.40;;;;;;4991869;28;20337;-81
2020/12/04 01:20:00;;;;;;;35.70;19.87;;;1.70;87.40;;;;;;4992040;28;20210;-81
2020/12/04 01:22:27;;;;;;;35.63;19.20;;;1.70;87.50;;;;;;4997785;28;20211;-81
2020/12/04 01:24:56;;;;;;;33.87;18.90;;;1.70;87.50;;;;;;4996803;28;20200;-79
2020/12/04 01:27:23;;;;;;;29.27;16.67;;;1.70;87.50;;;;;;4987968;28;20236;-80
2020/12/04 01:29:50;;;;;;;31.87;18.87;;;1.70;87.40;;;;;;5002634;28;20215;-80
2020/12/04 01:32:18;;;;;;;33.60;18.60;;;1.70;87.40;;;;;;4994060;28;20207;-79
2020/12/04 01:34:45;;;;;;;35.57;19.30;;;1.70;87.50;;;;;;4998102;28;20226;-80
2020/12/04 01:37:12;;;;;;;34.83;17.77;;;1.60;87.60;;;;;;5000515;28;20253;-81
2020/12/04 01:39:40;;;;;;;31.80;17.93;;;1.60;87.70;;;;;;4989541;28;20191;-81
2020/12/04 01:42:08;;;;;;;34.47;17.90;;;1.50;87.90;;;;;;5004350;28;20583;-81
2020/12/04 01:44:37;;;;;;;34.10;18.83;;;1.50;88.00;;;;;;4994195;28;20635;-80
2020/12/04 01:47:04;;;;;;;34.47;18.43;;;1.40;88.10;;;;;;4997631;28;20219;-80
2020/12/04 01:49:32;;;;;;;32.03;17.23;;;1.40;88.20;;;;;;4999026;28;20226;-78
2020/12/04 01:51:59;;;;;;;33.43;19.33;;;1.40;88.20;;;;;;4993256;28;20323;-79
2020/12/04 01:54:27;;;;;;;32.83;17.93;;;1.50;88.20;;;;;;5002106;28;20179;-80
2020/12/04 01:56:55;;;;;;;33.83;17.60;;;1.50;88.30;;;;;;4991496;28;20317;-80
2020/12/04 01:59:24;;;;;;;34.33;18.33;;;1.50;88.20;;;;;;4997168;28;20544;-82
2020/12/04 02:02:01;;;;;;;33.60;18.60;;;1.60;88.10;;;;;;4992645;28;20411;-81
2020/12/04 02:04:29;;;;;;;34.30;16.77;;;1.60;88.00;;;;;;4997433;28;20649;-79
2020/12/04 02:07:04;;;;;;;32.80;16.97;;;1.60;88.00;;;;;;5014447;28;20478;-81
2020/12/04 02:09:38;;;;;;;30.30;18.33;;;1.70;88.00;;;;;;5006905;28;20211;-79
2020/12/04 02:12:07;;;;;;;26.30;15.70;;;1.70;87.90;;;;;;5013471;28;20421;-82
2020/12/04 02:14:36;;;;;;;32.27;14.80;;;1.60;88.00;;;;;;4987326;28;20204;-81
2020/12/04 02:17:05;;;;;;;31.50;17.53;;;1.60;87.90;;;;;;4996699;28;20747;-80
2020/12/04 02:19:35;;;;;;;28.60;17.47;;;1.60;87.90;;;;;;4995323;28;20230;-80
2020/12/04 02:22:04;;;;;;;32.33;17.33;;;1.70;88.00;;;;;;4994000;28;20615;-78
2020/12/04 02:24:32;;;;;;;30.73;16.70;;;1.60;88.00;;;;;;4993633;28;20626;-80
2020/12/04 02:27:00;;;;;;;32.13;17.80;;;1.80;88.00;;;;;;4994479;28;20204;-79
2020/12/04 02:29:28;;;;;;;28.00;16.00;;;1.70;87.90;;;;;;4997474;28;20210;-81
2020/12/04 02:31:56;;;;;;;31.77;16.83;;;1.80;88.00;;;;;;4995224;28;20608;-80
2020/12/04 02:34:23;;;;;;;29.73;16.53;;;1.70;87.90;;;;;;4988110;28;20602;-80
2020/12/04 02:36:54;;;;;;;32.10;16.97;;;1.60;87.80;;;;;;4999700;28;20238;-78
2020/12/04 02:39:22;;;;;;;29.77;16.93;;;1.50;88.10;;;;;;5002422;28;20282;-80
2020/12/04 02:41:50;;;;;;;32.27;16.97;;;1.40;88.10;;;;;;5003378;28;20206;-81
2020/12/04 02:44:17;;;;;;;32.40;17.97;;;1.50;88.30;;;;;;4998367;28;20202;-80
2020/12/04 02:46:46;;;;;;;31.57;17.13;;;1.40;88.40;;;;;;5004380;28;20465;-79
2020/12/04 02:49:15;;;;;;;32.33;16.70;;;1.40;88.50;;;;;;4998709;28;20417;-79
2020/12/04 02:51:44;;;;;;;32.97;17.17;;;1.40;88.60;;;;;;4995389;28;20262;-80
2020/12/04 02:54:12;;;;;;;28.50;16.63;;;1.40;88.50;;;;;;4991914;28;20204;-80
2020/12/04 02:56:40;;;;;;;31.03;17.27;;;1.40;88.60;;;;;;4990786;28;20594;-81
2020/12/04 02:59:08;;;;;;;32.07;16.23;;;1.40;88.80;;;;;;4989072;28;20519;-81
2020/12/04 03:01:36;;;;;;;29.97;16.93;;;1.40;88.70;;;;;;4994679;28;20208;-80
2020/12/04 03:04:04;;;;;;;29.50;16.80;;;1.60;88.70;;;;;;4995919;28;20264;-81
2020/12/04 03:06:31;;;;;;;29.40;16.93;;;1.50;88.60;;;;;;4988909;28;20716;-81
2020/12/04 03:08:59;;;;;;;30.03;16.80;;;1.50;88.60;;;;;;4998745;28;20267;-79
2020/12/04 03:11:26;;;;;;;31.07;16.30;;;1.60;88.50;;;;;;4994557;28;20480;-82
2020/12/04 03:13:55;;;;;;;33.37;16.83;;;1.60;88.40;;;;;;5000953;28;20207;-78
2020/12/04 03:16:22;;;;;;;30.53;17.37;;;1.70;88.30;;;;;;5000449;28;20649;-80
2020/12/04 03:18:52;;;;;;;30.77;16.43;;;1.80;88.30;;;;;;4991864;28;20207;-79
2020/12/04 03:21:20;;;;;;;30.73;14.97;;;1.70;88.10;;;;;;4999245;28;20202;-79
2020/12/04 03:23:47;;;;;;;28.90;16.60;;;1.80;88.00;;;;;;4985108;28;20208;-79
2020/12/04 03:26:15;;;;;;;26.60;14.77;;;1.80;87.90;;;;;;4999160;28;20303;-80
2020/12/04 03:28:42;;;;;;;26.57;16.00;;;1.80;87.90;;;;;;4993064;28;20204;-79
2020/12/04 03:31:11;;;;;;;28.87;16.70;;;1.90;87.80;;;;;;4996187;28;20227;-80
2020/12/04 03:33:38;;;;;;;31.27;16.70;;;1.80;87.80;;;;;;5018132;28;20183;-79
2020/12/04 03:36:06;;;;;;;28.23;16.93;;;1.80;88.00;;;;;;5015144;28;20184;-80
2020/12/04 03:38:36;;;;;;;30.60;16.43;;;1.70;88.10;;;;;;5014424;28;20628;-80
2020/12/04 03:41:04;;;;;;;32.10;16.37;;;1.60;88.20;;;;;;4994247;28;20257;-81
2020/12/04 03:43:31;;;;;;;28.23;16.53;;;1.70;88.20;;;;;;4993902;28;20254;-81
2020/12/04 03:45:59;;;;;;;31.57;18.33;;;1.60;88.40;;;;;;4994155;28;20679;-80
2020/12/04 03:48:27;;;;;;;30.93;17.90;;;1.60;88.50;;;;;;4988144;28;20536;-81
2020/12/04 03:50:55;;;;;;;28.50;16.83;;;1.50;88.60;;;;;;4991865;28;20301;-80
2020/12/04 03:53:22;;;;;;;32.07;18.10;;;1.40;88.70;;;;;;4994517;28;20288;-79
2020/12/04 03:55:50;;;;;;;28.30;17.40;;;1.40;89.00;;;;;;4993769;28;20308;-80
2020/12/04 03:58:17;;;;;;;33.00;17.40;;;1.40;89.20;;;;;;4993034;28;20219;-80
2020/12/04 04:00:45;;;;;;;30.63;17.77;;;1.40;89.30;;;;;;4990929;28;20214;-81
2020/12/04 04:03:12;;;;;;;29.40;17.97;;;1.40;89.20;;;;;;4993332;28;20411;-80
2020/12/04 04:05:40;;;;;;;30.20;17.27;;;1.50;89.20;;;;;;4989324;28;20331;-80
2020/12/04 04:08:08;;;;;;;29.57;17.80;;;1.40;89.20;;;;;;4993617;28;20202;-79
2020/12/04 04:10:35;;;;;;;28.63;18.00;;;1.40;89.20;;;;;;4987052;28;20207;-80
2020/12/04 04:13:03;;;;;;;28.43;16.13;;;1.40;89.40;;;;;;4987530;28;20218;-81
2020/12/04 04:15:30;;;;;;;29.00;16.40;;;1.30;89.60;;;;;;4989883;28;20472;-80
2020/12/04 04:17:59;;;;;;;29.07;17.00;;;1.40;89.50;;;;;;4995884;28;20261;-80
2020/12/04 04:20:26;;;;;;;32.00;17.17;;;1.40;89.60;;;;;;4993370;28;20231;-81
2020/12/04 04:22:55;;;;;;;30.03;17.37;;;1.40;89.60;;;;;;5016278;28;20195;-79
2020/12/04 04:25:23;;;;;;;28.77;16.00;;;1.40;89.50;;;;;;5015895;28;20518;-78
2020/12/04 04:27:50;;;;;;;32.13;17.53;;;1.40;89.60;;;;;;5010191;28;20252;-77
2020/12/04 04:30:18;;;;;;;27.27;15.60;;;1.30;89.70;;;;;;4999959;28;20522;-80
2020/12/04 04:32:45;;;;;;;26.20;16.23;;;1.30;89.80;;;;;;4985268;28;20931;-80
2020/12/04 04:35:12;;;;;;;30.83;17.17;;;1.40;89.70;;;;;;4999558;28;20199;-80
2020/12/04 04:37:42;;;;;;;30.93;16.57;;;1.40;89.60;;;;;;4992149;28;20255;-81
2020/12/04 04:40:11;;;;;;;27.30;15.80;;;1.40;89.70;;;;;;4993563;28;20762;-80
2020/12/04 04:42:38;;;;;;;28.13;16.33;;;1.40;89.70;;;;;;5001983;28;20228;-81
2020/12/04 04:45:06;;;;;;;29.20;15.77;;;1.40;89.70;;;;;;4995644;28;20222;-79
2020/12/04 04:47:38;;;;;;;29.47;17.23;;;1.40;89.60;;;;;;5001006;28;20206;-81
2020/12/04 04:50:06;;;;;;;29.97;15.70;;;1.40;89.60;;;;;;4995417;28;20405;-79
2020/12/04 04:52:36;;;;;;;28.00;16.10;;;1.40;89.60;;;;;;4998513;28;20206;-81
2020/12/04 04:55:04;;;;;;;28.53;16.27;;;1.50;89.80;;;;;;5000209;28;20270;-80
2020/12/04 04:57:33;;;;;;;30.83;16.57;;;1.40;89.70;;;;;;4995899;28;20232;-79
2020/12/04 05:00:01;;;;;;;30.83;16.50;;;1.50;89.60;;;;;;5006105;28;20290;-81
2020/12/04 05:02:28;;;;;;;30.70;17.70;;;1.40;89.60;;;;;;5008528;28;20207;-80
2020/12/04 05:04:57;;;;;;;28.87;15.53;;;1.50;89.80;;;;;;5018602;28;20424;-80
2020/12/04 05:07:30;;;;;;;26.33;14.40;;;1.40;89.80;;;;;;5000943;28;20222;-79
2020/12/04 05:10:10;;;;;;;28.30;16.53;;;1.50;89.80;;;;;;5004368;28;20207;-79
2020/12/04 05:12:41;;;;;;;27.37;16.63;;;1.40;89.80;;;;;;5002173;28;20202;-81
2020/12/04 05:15:22;;;;;;;28.40;15.43;;;1.30;89.90;;;;;;5006571;28;20206;-80
2020/12/04 05:18:01;;;;;;;29.93;15.17;;;1.30;90.00;;;;;;5005960;28;20251;-79
2020/12/04 05:20:29;;;;;;;27.33;16.13;;;1.30;90.10;;;;;;5005710;28;20206;-80
2020/12/04 05:22:58;;;;;;;28.17;15.83;;;1.30;90.10;;;;;;5004318;28;20238;-80
2020/12/04 05:25:25;;;;;;;33.50;17.40;;;1.30;90.20;;;;;;5000193;28;20311;-80
2020/12/04 05:28:11;;;;;;;26.77;15.10;;;1.30;90.20;;;;;;4999429;28;20491;-80
2020/12/04 05:30:41;;;;;;;30.20;16.17;;;1.30;90.20;;;;;;4998119;28;20333;-83
2020/12/04 05:33:09;;;;;;;26.17;15.03;;;1.30;90.20;;;;;;5000404;28;20201;-81
2020/12/04 05:35:38;;;;;;;28.90;16.53;;;1.30;90.20;;;;;;4995558;28;20301;-82
2020/12/04 05:38:11;;;;;;;30.90;17.10;;;1.30;90.20;;;;;;4999598;28;20287;-81
2020/12/04 05:40:44;;;;;;;30.20;16.77;;;1.30;90.20;;;;;;4995894;28;20214;-79
2020/12/04 05:43:13;;;;;;;27.23;16.17;;;1.30;90.30;;;;;;4999620;28;20249;-82
2020/12/04 05:45:41;;;;;;;29.17;15.77;;;1.30;90.30;;;;;;5000855;28;20222;-79
2020/12/04 05:48:13;;;;;;;33.43;16.70;;;1.30;90.30;;;;;;4989171;28;20684;-80
2020/12/04 05:50:41;;;;;;;28.30;15.70;;;1.30;90.30;;;;;;4996578;28;20510;-80
2020/12/04 05:53:09;;;;;;;28.43;16.90;;;1.30;90.30;;;;;;4992790;28;20205;-79
2020/12/04 05:55:38;;;;;;;30.50;16.70;;;1.30;90.30;;;;;;4998422;28;20289;-81
2020/12/04 05:58:12;;;;;;;29.90;17.47;;;1.30;90.30;;;;;;5008864;28;20234;-81
2020/12/04 06:00:42;;;;;;;24.67;12.90;;;1.30;90.40;;;;;;5009409;28;20214;-81
2020/12/04 06:03:11;;;;;;;29.13;16.97;;;1.30;90.30;;;;;;4991169;28;20298;-80
2020/12/04 06:05:39;;;;;;;29.07;17.13;;;1.50;90.30;;;;;;4991095;28;20261;-79
2020/12/04 06:08:07;;;;;;;30.27;17.37;;;1.40;90.30;;;;;;4993245;28;20464;-81
2020/12/04 06:10:36;;;;;;;30.50;17.80;;;1.40;90.30;;;;;;4997270;28;20800;-80
2020/12/04 06:13:04;;;;;;;27.80;17.03;;;1.30;90.30;;;;;;4998058;28;20656;-80
2020/12/04 06:15:32;;;;;;;28.50;17.43;;;1.50;90.40;;;;;;5003445;28;20237;-80
2020/12/04 06:18:04;;;;;;;29.33;16.50;;;1.30;90.30;;;;;;4995007;28;20304;-80
2020/12/04 06:20:41;;;;;;;28.53;16.43;;;1.40;90.40;;;;;;5005475;28;20197;-80
2020/12/04 06:23:14;;;;;;;33.37;16.90;;;1.40;90.40;;;;;;5011231;28;20194;-77
2020/12/04 06:26:03;;;;;;;27.80;14.90;;;1.40;90.40;;;;;;5010585;28;20208;-82
2020/12/04 06:28:33;;;;;;;32.03;17.63;;;1.60;90.40;;;;;;5008737;28;20242;-78
2020/12/04 06:31:03;;;;;;;30.03;16.87;;;1.50;90.30;;;;;;5008700;28;20340;-81
2020/12/04 06:33:46;;;;;;;28.73;17.10;;;1.50;90.30;;;;;;4993932;28;20227;-76
2020/12/04 06:36:34;;;;;;;29.03;16.57;;;1.60;90.30;;;;;;5009908;28;20202;-82
2020/12/04 06:39:06;;;;;;;30.10;16.13;;;1.60;90.20;;;;;;5013038;28;20476;-79
2020/12/04 06:41:38;;;;;;;30.13;16.50;;;1.60;90.20;;;;;;5014905;28;20574;-79
2020/12/04 06:44:06;;;;;;;29.23;16.87;;;1.70;90.10;;;;;;5001761;28;20199;-81
2020/12/04 06:46:40;;;;;;;28.33;15.77;;;1.70;90.10;;;;;;4997068;28;20207;-80
2020/12/04 06:49:23;;;;;;;28.70;16.00;;;1.70;90.20;;;;;;4994344;28;20571;-80
2020/12/04 06:51:59;;;;;;;27.37;16.57;;;1.70;90.20;;;;;;4992337;28;20228;-81
2020/12/04 06:54:28;;;;;;;27.47;16.07;;;1.70;90.10;;;;;;4992464;28;20209;-81
2020/12/04 06:56:57;;;;;;;34.20;16.83;;;1.80;90.10;;;;;;4993670;28;20226;-81
2020/12/04 06:59:28;;;;;;;28.93;16.30;;;1.80;90.00;;;;;;4995435;28;20328;-80
2020/12/04 07:02:01;;;;;;;27.67;15.53;;;1.80;90.00;;;;;;4998519;28;20630;-79
2020/12/04 07:04:32;;;;;;;30.10;17.27;;;1.80;90.00;;;;;;5000503;28;20198;-78
2020/12/04 07:07:08;;;;;;;32.77;17.53;;;1.80;90.00;;;;;;4994720;28;20577;-80
2020/12/04 07:09:37;;;;;;;27.40;16.43;;;1.90;90.00;;;;;;4988438;28;20430;-80
2020/12/04 07:12:05;;;;;;;31.07;17.63;;;1.90;90.00;;;;;;5004785;28;20198;-80
2020/12/04 07:14:33;;;;;;;31.40;17.07;;;2.10;90.00;;;;;;5008092;28;20207;-80
2020/12/04 07:17:01;;;;;;;28.70;16.90;;;1.90;89.90;;;;;;5007228;28;21013;-81
2020/12/04 07:19:34;;;;;;;27.43;16.67;;;2.00;89.80;;;;;;4999727;28;20330;-81
2020/12/04 07:22:02;;;;;;;31.77;17.93;;;2.00;89.80;;;;;;4997704;28;20229;-82
2020/12/04 07:24:29;;;;;;;30.87;18.03;;;2.00;89.70;;;;;;4983097;28;20203;-76
2020/12/04 07:26:59;;;;;;;27.00;15.87;;;2.00;89.60;;;;;;4983042;28;20460;-82
2020/12/04 07:29:27;;;;;;;32.53;17.90;;;2.00;89.50;;;;;;4984402;28;20634;-80
2020/12/04 07:31:55;;;;;;;29.33;17.20;;;2.10;89.40;;;;;;4973292;28;20694;-80
2020/12/04 07:34:28;;;;;;;30.20;15.97;;;2.10;89.40;;;;;;4986214;28;20280;-80
2020/12/04 07:36:56;;;;;;;28.20;16.20;;;2.20;89.40;;;;;;4975633;28;20210;-82
2020/12/04 07:39:31;;;;;;;29.97;17.30;;;2.30;89.20;;;;;;4982507;28;20293;-80
2020/12/04 07:42:01;;;;;;;28.60;17.07;;;2.30;89.00;;;;;;4993960;28;20198;-80
2020/12/04 07:44:34;;;;;;;34.70;17.67;;;2.40;88.90;;;;;;4982590;28;20339;-79
2020/12/04 07:47:11;;;;;;;29.03;16.90;;;2.40;88.90;;;;;;4987313;28;20762;-82
2020/12/04 07:49:42;;;;;;;26.63;15.50;;;2.50;88.60;;;;;;4987663;28;20670;-79
2020/12/04 07:52:18;;;;;;;28.10;16.90;;;2.50;88.40;;;;;;5006163;28;20474;-80
2020/12/04 07:54:47;;;;;;;27.50;15.73;;;2.60;88.30;;;;;;5015214;28;20206;-82
2020/12/04 07:57:24;;;;;;;28.73;16.10;;;2.60;88.00;;;;;;5013825;28;20215;-81
2020/12/04 07:59:55;;;;;;;28.57;15.90;;;2.60;88.00;;;;;;5009180;28;20206;-82
2020/12/04 08:02:25;;;;;;;28.67;16.67;;;2.60;87.90;;;;;;5004563;28;20462;-81
2020/12/04 08:04:53;;;;;;;32.00;16.23;;;2.70;88.00;;;;;;4999876;28;20242;-83
2020/12/04 08:07:30;;;;;;;26.00;16.33;;;2.70;87.90;;;;;;4995477;28;20306;-80
2020/12/04 08:09:59;;;;;;;29.83;16.03;;;2.70;87.90;;;;;;4997156;28;20476;-81
2020/12/04 08:12:30;;;;;;;28.80;16.53;;;2.70;88.00;;;;;;5001290;28;20207;-82
2020/12/04 08:15:03;;;;;;;30.90;16.73;;;2.70;87.90;;;;;;5007260;28;20203;-79
2020/12/04 08:17:34;;;;;;;31.70;16.20;;;2.70;87.90;;;;;;5005006;28;20368;-82
2020/12/04 08:20:14;;;;;;;27.97;16.63;;;2.70;87.90;;;;;;5008945;28;20210;-81
2020/12/04 08:25:59;;;;;;;31.63;17.70;;;2.80;87.90;;;;;;4995394;28;20259;-84
2020/12/04 08:28:32;;;;;;;31.23;16.90;;;2.90;87.70;;;;;;5004870;28;20606;-81
2020/12/04 08:31:02;;;;;;;30.43;17.90;;;3.00;87.50;;;;;;4999845;28;20197;-80
2020/12/04 08:33:39;;;;;;;27.23;16.90;;;3.10;87.50;;;;;;5004336;28;20447;-80
2020/12/04 08:36:13;;;;;;;27.07;17.43;;;3.10;87.30;;;;;;4996463;28;20602;-79
2020/12/04 08:38:51;;;;;;;28.97;17.37;;;3.20;87.30;;;;;;4978621;28;20544;-80
2020/12/04 08:41:19;;;;;;;30.23;16.77;;;3.20;87.10;;;;;;4974215;28;20234;-81
2020/12/04 08:43:49;;;;;;;28.77;17.07;;;3.20;87.10;;;;;;4983603;28;20218;-81
2020/12/04 08:46:17;;;;;;;31.07;17.73;;;3.20;87.10;;;;;;4999358;28;20234;-81
2020/12/04 08:48:44;;;;;;;32.13;17.50;;;3.20;87.20;;;;;;4996068;28;20723;-82
2020/12/04 08:51:15;;;;;;;31.93;17.83;;;3.20;87.10;;;;;;4994000;28;20193;-81
2020/12/04 08:53:42;;;;;;;29.73;16.87;;;3.20;87.30;;;;;;5001741;28;20954;-82
2020/12/04 08:56:12;;;;;;;30.90;16.70;;;3.20;87.00;;;;;;4978301;28;20419;-80
2020/12/04 08:58:39;;;;;;;32.93;17.33;;;3.20;87.00;;;;;;4982504;28;20274;-82
2020/12/04 09:01:40;;;;;;;26.90;16.30;;;3.20;87.20;;;;;;4991775;28;20192;-83
2020/12/04 09:04:14;;;;;;;27.07;16.40;;;3.30;87.20;;;;;;5014764;28;20203;-84
2020/12/04 09:06:50;;;;;;;24.00;14.23;;;3.30;87.20;;;;;;5019849;28;20207;-84
2020/12/04 09:09:44;;;;;;;28.47;16.50;;;3.30;87.20;;;;;;5017161;28;20398;-82
2020/12/04 09:12:21;;;;;;;28.87;16.63;;;3.40;87.20;;;;;;5011449;28;20210;-84
2020/12/04 09:14:50;;;;;;;29.33;15.73;;;3.40;87.20;;;;;;5001981;28;20208;-81
2020/12/04 09:17:19;;;;;;;27.87;16.60;;;3.40;87.00;;;;;;5010007;28;20202;-83
2020/12/04 09:19:47;;;;;;;26.80;16.77;;;3.50;86.90;;;;;;5008560;28;20450;-80
2020/12/04 09:22:16;;;;;;;32.07;17.83;;;3.60;86.90;;;;;;5009482;28;20196;-82
2020/12/04 09:24:44;;;;;;;27.90;17.07;;;3.60;86.90;;;;;;4989724;28;20204;-85
2020/12/04 09:27:12;;;;;;;31.40;17.40;;;3.60;86.90;;;;;;4976338;28;20377;-83
2020/12/04 09:29:40;;;;;;;28.17;15.23;;;3.70;86.90;;;;;;4984477;28;20196;-81
2020/12/04 09:32:11;;;;;;;27.67;17.20;;;3.80;86.90;;;;;;4999112;28;20946;-82
2020/12/04 09:34:41;;;;;;;29.13;16.17;;;3.80;86.70;;;;;;4993861;28;20489;-82
2020/12/04 09:37:10;;;;;;;27.57;16.10;;;3.90;86.80;;;;;;4990278;28;20249;-80
2020/12/04 09:39:39;;;;;;;25.90;16.00;;;3.90;86.70;;;;;;4984260;28;20239;-84
2020/12/04 09:42:07;;;;;;;24.10;16.27;;;3.90;86.50;;;;;;5011500;28;20576;-82
2020/12/04 09:44:35;;;;;;;29.33;15.27;;;4.10;86.40;;;;;;4998950;28;20230;-81
2020/12/04 09:47:04;;;;;;;27.43;15.27;;;4.20;86.20;;;;;;4997456;28;20205;-84
2020/12/04 09:49:33;;;;;;;28.63;16.20;;;4.20;86.10;;;;;;4993187;28;20299;-84
2020/12/04 09:52:03;;;;;;;23.73;15.60;;;4.20;86.10;;;;;;4993075;28;20214;-82
2020/12/04 09:54:38;;;;;;;24.70;15.80;;;4.40;86.10;;;;;;4998492;28;20864;-84
2020/12/04 09:57:07;;;;;;;24.47;15.60;;;4.30;86.20;;;;;;4995080;28;20218;-80
2020/12/04 09:59:44;;;;;;;26.53;14.70;;;4.30;86.20;;;;;;4977711;28;20198;-82
2020/12/04 10:02:16;;;;;;;27.20;15.30;;;4.40;85.90;;;;;;4982059;28;20677;-78
2020/12/04 10:04:47;;;;;;;24.00;14.97;;;4.40;86.00;;;;;;4989247;28;20263;-82
2020/12/04 10:07:15;;;;;;;27.70;16.97;;;4.50;85.90;;;;;;4990839;28;20206;-79
2020/12/04 10:09:42;;;;;;;26.53;14.53;;;4.50;85.80;;;;;;4996859;28;20203;-81
2020/12/04 10:12:10;;;;;;;24.50;14.50;;;4.70;85.70;;;;;;4996699;28;20907;-85
2020/12/04 10:14:41;;;;;;;27.37;15.40;;;4.70;85.40;;;;;;4988197;28;20520;-81
2020/12/04 10:17:09;;;;;;;24.67;15.37;;;4.80;85.30;;;;;;5009834;28;20288;-81
2020/12/04 10:19:38;;;;;;;23.77;14.67;;;4.80;85.30;;;;;;5010718;28;20740;-84
2020/12/04 10:22:06;;;;;;;22.70;14.23;;;4.80;85.30;;;;;;5003705;28;20191;-86
2020/12/04 10:24:37;;;;;;;22.33;14.40;;;4.70;85.30;;;;;;5013645;28;20277;-82
2020/12/04 10:27:05;;;;;;;22.53;13.97;;;4.70;85.30;;;;;;5004739;28;20210;-85
2020/12/04 10:29:33;;;;;;;24.13;14.90;;;4.60;85.40;;;;;;5003657;28;20198;-86
2020/12/04 10:32:02;;;;;;;23.20;14.40;;;4.70;85.50;;;;;;5003909;28;20210;-85
2020/12/04 10:34:30;;;;;;;27.40;15.93;;;4.70;85.40;;;;;;4993985;28;20203;-82
2020/12/04 10:36:59;;;;;;;24.80;15.00;;;4.60;85.50;;;;;;4989553;28;20198;-81
2020/12/04 10:39:28;;;;;;;25.03;15.20;;;4.50;85.40;;;;;;4986462;28;20213;-81
2020/12/04 10:41:57;;;;;;;23.17;13.20;;;4.60;85.60;;;;;;5001333;28;20231;-82
2020/12/04 10:44:24;;;;;;;25.60;15.80;;;4.60;85.70;;;;;;5014242;28;20193;-78
2020/12/04 10:46:52;;;;;;;24.87;15.67;;;4.60;85.80;;;;;;5007507;28;20193;-80
2020/12/04 10:49:20;;;;;;;26.23;15.27;;;4.60;85.80;;;;;;5001274;28;20278;-85
2020/12/04 10:51:59;;;;;;;26.77;15.53;;;4.60;85.70;;;;;;5000918;28;20199;-83
2020/12/04 10:54:28;;;;;;;25.37;15.47;;;4.70;85.80;;;;;;5000213;28;20785;-82
2020/12/04 10:57:01;;;;;;;24.23;15.00;;;4.70;85.80;;;;;;4988111;28;20221;-83
2020/12/04 10:59:35;;;;;;;22.93;14.87;;;4.70;85.50;;;;;;4977484;28;20334;-82
2020/12/04 11:02:25;;;;;;;24.33;15.07;;;4.80;85.60;;;;;;4986107;28;20219;-81
2020/12/04 11:07:42;;;;;;;23.80;14.70;;;4.80;85.50;;;;;;5001108;28;20202;-88
2020/12/04 11:10:15;;;;;;;23.97;15.10;;;4.80;85.60;;;;;;5004549;28;20226;-83
2020/12/04 11:12:48;;;;;;;25.17;16.10;;;4.80;85.70;;;;;;5010051;28;20254;-86
2020/12/04 11:18:09;;;;;;;24.90;15.53;;;4.80;85.60;;;;;;5001685;28;20903;-87
2020/12/04 11:20:41;;;;;;;25.00;15.70;;;4.70;85.60;;;;;;4989432;28;20207;-80
2020/12/04 11:23:09;;;;;;;29.27;16.17;;;4.70;85.80;;;;;;4984759;28;20200;-82
2020/12/04 11:25:39;;;;;;;27.17;16.10;;;4.70;85.80;;;;;;4990591;28;21088;-82
2020/12/04 11:28:10;;;;;;;27.87;16.03;;;4.70;85.80;;;;;;4979599;28;20222;-85
2020/12/04 11:30:38;;;;;;;23.03;14.53;;;4.70;85.80;;;;;;4987275;28;20927;-84
2020/12/04 11:33:06;;;;;;;24.43;14.73;;;4.70;85.60;;;;;;4984653;28;20209;-85
2020/12/04 11:35:35;;;;;;;23.43;15.67;;;4.70;85.60;;;;;;4975010;28;20703;-84
2020/12/04 11:38:07;;;;;;;24.73;15.60;;;4.80;85.70;;;;;;4983734;28;20223;-83
2020/12/04 11:40:38;;;;;;;28.23;15.30;;;4.80;85.60;;;;;;4985012;28;20213;-84
2020/12/04 11:43:05;;;;;;;26.10;15.70;;;4.80;85.70;;;;;;4993552;28;20214;-83
2020/12/04 11:45:34;;;;;;;27.67;15.63;;;4.90;85.60;;;;;;4981419;28;20411;-84
2020/12/04 11:48:06;;;;;;;26.07;15.57;;;4.90;85.40;;;;;;4991302;28;20224;-82
2020/12/04 11:50:34;;;;;;;24.57;15.53;;;4.80;85.40;;;;;;4989033;28;20522;-81
2020/12/04 11:53:01;;;;;;;23.50;14.37;;;4.70;85.60;;;;;;4982396;28;20234;-82
2020/12/04 11:55:29;;;;;;;23.50;14.53;;;4.70;85.70;;;;;;4988900;28;20304;-83
2020/12/04 11:58:00;;;;;;;25.03;15.60;;;4.70;85.90;;;;;;4996422;28;20966;-81
2020/12/04 12:00:28;;;;;;;18.83;13.10;;;4.60;85.80;;;;;;4992435;28;20209;-82
2020/12/04 12:02:56;;;;;;;25.73;15.23;;;4.60;85.90;;;;;;4998357;28;20296;-81
2020/12/04 12:05:24;;;;;;;27.40;16.17;;;4.60;86.00;;;;;;5005899;28;20195;-79
2020/12/04 12:07:53;;;;;;;28.47;16.17;;;4.80;86.00;;;;;;5020726;28;20224;-81
2020/12/04 12:10:20;;;;;;;26.20;15.60;;;4.70;86.10;;;;;;5013318;28;20212;-84
2020/12/04 12:12:48;;;;;;;26.27;16.57;;;4.60;86.00;;;;;;5015761;28;20377;-83
2020/12/04 12:15:20;;;;;;;27.17;15.83;;;4.60;86.00;;;;;;5012264;28;20225;-86
2020/12/04 12:17:58;;;;;;;25.77;16.23;;;4.60;86.10;;;;;;5017091;28;20195;-85
2020/12/04 12:20:30;;;;;;;27.03;15.87;;;4.60;86.10;;;;;;5013250;28;20198;-85
2020/12/04 12:22:58;;;;;;;27.07;16.33;;;4.60;86.20;;;;;;5014835;28;20194;-85
2020/12/04 12:25:27;;;;;;;26.70;16.13;;;4.60;86.20;;;;;;5012991;28;20253;-84
2020/12/04 12:28:06;;;;;;;27.67;15.90;;;4.60;86.30;;;;;;5015643;28;20205;-86
2020/12/04 12:30:37;;;;;;;24.83;16.80;;;4.60;86.20;;;;;;4992378;28;20279;-83
2020/12/04 12:33:09;;;;;;;25.03;16.50;;;4.60;86.30;;;;;;4990924;28;20208;-86
2020/12/04 12:35:37;;;;;;;25.20;14.80;;;4.60;86.30;;;;;;4984411;28;20687;-82
2020/12/04 12:38:06;;;;;;;22.00;14.60;;;4.60;86.30;;;;;;4991275;28;21045;-81
2020/12/04 12:40:38;;;;;;;27.30;14.40;;;4.60;86.10;;;;;;4991174;28;20289;-86
2020/12/04 12:43:09;;;;;;;28.87;17.07;;;4.60;86.20;;;;;;4984177;28;20316;-82
2020/12/04 12:45:39;;;;;;;28.50;15.73;;;4.60;86.40;;;;;;4987051;28;20384;-79
2020/12/04 12:48:07;;;;;;;28.23;17.37;;;4.60;86.40;;;;;;4983981;28;20329;-82
2020/12/04 12:50:35;;;;;;;27.27;15.53;;;4.60;86.40;;;;;;4993697;28;20277;-82
2020/12/04 12:53:04;;;;;;;27.10;16.23;;;4.70;86.50;;;;;;4990476;28;20237;-81
2020/12/04 12:55:32;;;;;;;24.70;15.40;;;4.50;86.50;;;;;;5004881;28;20213;-79
2020/12/04 12:58:00;;;;;;;27.40;17.00;;;4.60;86.60;;;;;;4999495;28;20258;-82